WetterOnline ( http://www.wetteronline.ch )

Wetter aktuell Straubing

Aktuelles Wetter: Straubing (360m)

6-stündlich | Neueste Meldungen
Ortszeit Temperatur Wetter
Do, 21.02. 1:00 0.9° C bewölkt
Mi, 20.02. 19:00 5.1° C bedeckt
Mi, 20.02. 13:00 5.8° C wolkig
Mi, 20.02. 7:00 -1.9° C Nebel
Mi, 20.02. 1:00 2.3° C wolkenlos
Di, 19.02. 19:00 7.3° C bedeckt
Di, 19.02. 13:00 6.7° C fast wolkenlos
Di, 19.02. 7:00 -3.1° C Nebel
Ortszeit Temperatur Wetter
Do, 21.02. 3:00 1.0° C bewölkt
Do, 21.02. 2:50 1.0° C bewölkt
Do, 21.02. 2:40 1.6° C bedeckt
Do, 21.02. 2:30 0.8° C bedeckt
Do, 21.02. 2:20 0.8° C bedeckt
Do, 21.02. 2:10 0.5° C bedeckt
Do, 21.02. 2:00 0.9° C Nebel
Do, 21.02. 1:30 0.9° C Nebel
Do, 21.02. 1:00 0.9° C bewölkt
Do, 21.02. 0:30 1.1° C bedeckt
Do, 21.02. 0:00 2.1° C bewölkt
Ortszeit Relative Feuchte Sichtweite
Do, 21.02. 1:00 97% 3.0 km
Mi, 20.02. 19:00 89% 12 km
Mi, 20.02. 13:00 79% 12 km
Mi, 20.02. 7:00 98% <100 m
Mi, 20.02. 1:00 94% 7 km
Di, 19.02. 19:00 74% 18 km
Di, 19.02. 13:00 69% 21 km
Di, 19.02. 7:00 99% 0.6 km
Ortszeit Relative Feuchte Sichtweite
Do, 21.02. 3:00 96% 3.1 km
Do, 21.02. 2:50 96% -
Do, 21.02. 2:40 97% -
Do, 21.02. 2:30 98% 2.4 km
Do, 21.02. 2:20 98% -
Do, 21.02. 2:10 97% -
Do, 21.02. 2:00 98% 0.6 km
Do, 21.02. 1:30 99% 0.6 km
Do, 21.02. 1:00 97% 3.0 km
Do, 21.02. 0:30 96% 3.2 km
Do, 21.02. 0:00 96% 4.1 km
Ortszeit Niederschlagsmenge Niederschlagsart
Do, 21.02. 1:00 0.0 l/m2 in 6 Std. -
Mi, 20.02. 19:00 0.0 l/m2 in 12 Std. -
Mi, 20.02. 13:00 0.0 l/m2 in 6 Std. -
Mi, 20.02. 7:00 0.8 l/m2 in 12 Std. -
Mi, 20.02. 1:00 0.8 l/m2 in 6 Std. Regen
Di, 19.02. 19:00 0.1 l/m2 in 12 Std. Regen
Di, 19.02. 13:00 0.0 l/m2 in 6 Std. -
Di, 19.02. 7:00 0.0 l/m2 in 12 Std. -
Ortszeit Niederschlagsmenge Niederschlagsart
Do, 21.02. 3:00 0.0 l/m2 in 1 Std. -
Do, 21.02. 2:50 keine Meldung -
Do, 21.02. 2:40 keine Meldung -
Do, 21.02. 2:30 0.0 l/m2 in 1 Std. -
Do, 21.02. 2:20 keine Meldung -
Do, 21.02. 2:10 keine Meldung -
Do, 21.02. 2:00 0.0 l/m2 in 1 Std. -
Do, 21.02. 1:30 0.0 l/m2 in 1 Std. -
Do, 21.02. 1:00 0.0 l/m2 in 1 Std. -
Do, 21.02. 0:30 0.0 l/m2 in 1 Std. -
Do, 21.02. 0:00 0.0 l/m2 in 1 Std. -
Ortszeit Stärke Spitze Richtung
km/h Bft. km/h Grad Sektor
Do, 21.02. 1:00 4 1 7 190° S
Mi, 20.02. 19:00 7 2 11 190° S
Mi, 20.02. 13:00 6 1 9 30° NO
Mi, 20.02. 7:00 2 1 11 60° NO
Mi, 20.02. 1:00 7 2 14 250° W
Di, 19.02. 19:00 2 1 17 300° NW
Di, 19.02. 13:00 11 2 18 80° O
Di, 19.02. 7:00 0 0 11 - -
Ortszeit Stärke Spitze Richtung
km/h Bft. km/h Grad Sektor
Do, 21.02. 3:00 4 1 7 230° SW
Do, 21.02. 2:50 4 1 - 230° SW
Do, 21.02. 2:40 4 1 - 210° SW
Do, 21.02. 2:30 6 1 7 190° S
Do, 21.02. 2:20 6 1 - 190° S
Do, 21.02. 2:10 6 1 - 170° S
Do, 21.02. 2:00 4 1 4 170° S
Do, 21.02. 1:30 4 1 4 180° S
Do, 21.02. 1:00 4 1 7 190° S
Do, 21.02. 0:30 6 1 6 180° S
Do, 21.02. 0:00 4 1 7 150° SO
Ortszeit Untergrenze Bedeckung Gattung
total tief tief mittel hoch
Do, 21.02. 1:00 2700 m 8/8 7/8 - - -
Mi, 20.02. 19:00 3600 m 8/8 8/8 - - -
Mi, 20.02. 13:00 300 m 8/8 3/8 - - -
Mi, 20.02. 7:00 <30 m 8/8 0/8 - - -
Mi, 20.02. 1:00 - 0/8 0/8 - - -
Di, 19.02. 19:00 1440 m 8/8 8/8 - - -
Di, 19.02. 13:00 9000 m 2/8 0/8 - - -
Di, 19.02. 7:00 10500 m 8/8 0/8 - - -
Ortszeit Bedeckungsgrad in Achtel und Wolkenuntergrenze
Do, 21.02. 3:00 2(1140m) 7(2400m) 8(3000m)
Do, 21.02. 2:50 2(1140m) 7(2400m) 8(3000m)
Do, 21.02. 2:40 8(2700m)
Do, 21.02. 2:30 2(1290m) 8(2700m)
Do, 21.02. 2:20 2(1290m) 8(2700m)
Do, 21.02. 2:10 5(1260m) 8(2400m)
Do, 21.02. 2:00 5(1230m) 8(2700m) 8(3300m)
Do, 21.02. 1:30 8(3000m) 8(10500m)
Do, 21.02. 1:00 7(2700m) 8(3600m)
Do, 21.02. 0:30 8(2700m) 8(3300m)
Do, 21.02. 0:00 7(2700m) 8(3300m)
Ortszeit Luftdruck NN (hPa) Tendenz (hPa in 3 Std.)
Do, 21.02. 1:00 1029 + 0,4
Mi, 20.02. 19:00 1027 + 0,6
Mi, 20.02. 13:00 1026 + 0,3
Mi, 20.02. 7:00 1026 + 0,9
Mi, 20.02. 1:00 1024 + 0,9
Di, 19.02. 19:00 1021 + 0,5
Di, 19.02. 13:00 1022 - 0,8
Di, 19.02. 7:00 1023 + 1,1
Ortszeit Luftdruck NN (hPa) Tendenz (hPa in 3 Std.)
Do, 21.02. 3:00 1029 + 0,2
Do, 21.02. 2:50 1029 keine Meldung
Do, 21.02. 2:40 1029 keine Meldung
Do, 21.02. 2:30 1029 + 0,3
Do, 21.02. 2:20 1029 keine Meldung
Do, 21.02. 2:10 1029 keine Meldung
Do, 21.02. 2:00 1029 + 0,4
Do, 21.02. 1:30 1029 + 0,4
Do, 21.02. 1:00 1029 + 0,4
Do, 21.02. 0:30 1029 + 0,4
Do, 21.02. 0:00 1029 + 0,6
Ortszeit Schneehöhe (cm)
Do, 21.02. 1:00 0
Mi, 20.02. 19:00 0
Mi, 20.02. 13:00 0
Mi, 20.02. 7:00 0
Mi, 20.02. 1:00 0
Di, 19.02. 19:00 0
Di, 19.02. 13:00 0
Di, 19.02. 7:00 0
Ortszeit Schneehöhe (cm)
Do, 21.02. 3:00 0
Do, 21.02. 2:50 0
Do, 21.02. 2:40 0
Do, 21.02. 2:30 0
Do, 21.02. 2:20 0
Do, 21.02. 2:10 0
Do, 21.02. 2:00 0
Do, 21.02. 1:30 0
Do, 21.02. 1:00 0
Do, 21.02. 0:30 0
Do, 21.02. 0:00 0
Link zu dieser Seite / Seite empfehlen

Das Wetter in ...